createdAt,value
2022-11-24T00:01:21.413Z,98082.94
2022-11-24T00:03:55.102Z,98082.38
2022-11-24T00:06:23.847Z,98099.22
2022-11-24T00:08:52.592Z,98092.78
2022-11-24T00:11:22.841Z,98104.41
2022-11-24T00:13:51.680Z,98105.56
2022-11-24T00:16:23.454Z,98110.94
2022-11-24T00:18:53.373Z,98121.19
2022-11-24T00:21:22.590Z,98124.72
2022-11-24T00:23:51.608Z,98137.97
2022-11-24T00:26:21.997Z,98131.28
2022-11-24T00:28:52.021Z,98140.91
2022-11-24T00:31:23.346Z,98143.50
2022-11-24T00:33:53.683Z,98147.09
2022-11-24T00:36:23.492Z,98138.19
2022-11-24T00:38:55.464Z,98145.91
2022-11-24T00:41:24.011Z,98146.50
2022-11-24T00:43:52.100Z,98142.63
2022-11-24T00:46:22.158Z,98157.09
2022-11-24T00:48:50.852Z,98161.38
2022-11-24T00:51:20.562Z,98158.72
2022-11-24T00:53:48.722Z,98161.66
2022-11-24T00:56:17.286Z,98173.06
2022-11-24T00:58:45.401Z,98160.09
2022-11-24T01:01:15.785Z,98167.22
2022-11-24T01:03:46.774Z,98172.69
2022-11-24T01:06:17.661Z,98179.09
2022-11-24T01:08:46.500Z,98186.00
2022-11-24T01:11:17.144Z,98183.47
2022-11-24T01:13:47.341Z,98188.69
2022-11-24T01:16:17.689Z,98200.06
2022-11-24T01:18:48.031Z,98197.53
2022-11-24T01:21:16.916Z,98202.00
2022-11-24T01:23:45.176Z,98212.44
2022-11-24T01:26:16.021Z,98215.03
2022-11-24T01:28:46.930Z,98222.75
2022-11-24T01:31:16.897Z,98220.91
2022-11-24T01:33:45.091Z,98218.38
2022-11-24T01:36:14.640Z,98213.09
2022-11-24T01:38:42.747Z,98212.31
2022-11-24T01:41:13.723Z,98214.66
2022-11-24T01:43:42.962Z,98224.16
2022-11-24T01:46:20.873Z,98237.19
2022-11-24T01:48:55.435Z,98241.50
2022-11-24T01:51:27.952Z,98246.59
2022-11-24T01:54:00.162Z,98262.94
2022-11-24T01:56:29.568Z,98272.25
2022-11-24T01:59:01.606Z,98265.34
2022-11-24T02:01:31.572Z,98262.41
2022-11-24T02:04:02.717Z,98271.72
2022-11-24T02:06:34.421Z,98274.19
2022-11-24T02:09:08.165Z,98269.78
2022-11-24T02:11:38.310Z,98271.50
2022-11-24T02:14:08.170Z,98275.75
2022-11-24T02:16:37.591Z,98279.22
2022-11-24T02:19:13.250Z,98276.72
2022-11-24T02:21:42.670Z,98277.59
2022-11-24T02:24:20.100Z,98287.94
2022-11-24T02:26:52.087Z,98299.06
2022-11-24T02:29:21.170Z,98293.53
2022-11-24T02:31:53.680Z,98293.41
2022-11-24T02:34:22.152Z,98310.56
2022-11-24T02:36:50.280Z,98311.91
2022-11-24T02:39:18.472Z,98314.50
2022-11-24T02:41:53.292Z,98327.41
2022-11-24T02:44:24.280Z,98327.34
2022-11-24T02:47:03.066Z,98335.19
2022-11-24T02:49:31.201Z,98329.91
2022-11-24T02:51:59.380Z,98339.41
2022-11-24T02:54:27.591Z,98341.25
2022-11-24T02:56:57.252Z,98337.78
2022-11-24T02:59:25.460Z,98337.00
2022-11-24T03:01:53.804Z,98338.91
2022-11-24T03:04:22.041Z,98343.38
2022-11-24T03:06:50.141Z,98342.81
2022-11-24T03:09:18.283Z,98361.13
2022-11-24T03:11:46.291Z,98359.44
2022-11-24T03:14:15.752Z,98362.16
2022-11-24T03:16:43.805Z,98365.00
2022-11-24T03:19:11.982Z,98361.66
2022-11-24T03:21:40.048Z,98365.31
2022-11-24T03:24:08.202Z,98361.91
2022-11-24T03:26:36.662Z,98358.47
2022-11-24T03:29:04.911Z,98361.22
2022-11-24T03:31:34.294Z,98377.69
2022-11-24T03:34:02.551Z,98370.56
2022-11-24T03:36:30.589Z,98379.13
2022-11-24T03:38:58.751Z,98386.63
2022-11-24T03:41:26.824Z,98378.03
2022-11-24T03:43:54.922Z,98394.78
2022-11-24T03:46:23.081Z,98387.97
2022-11-24T03:48:52.715Z,98380.56
2022-11-24T03:51:20.811Z,98392.16
2022-11-24T03:53:48.921Z,98390.53
2022-11-24T03:56:17.552Z,98388.88
2022-11-24T03:58:45.682Z,98395.25
2022-11-24T04:01:13.767Z,98396.25
2022-11-24T04:03:41.932Z,98393.63
2022-11-24T04:06:11.702Z,98410.09
2022-11-24T04:08:39.791Z,98406.59
2022-11-24T04:11:08.203Z,98402.03
2022-11-24T04:13:35.342Z,98398.28
2022-11-24T04:16:06.694Z,98418.13
2022-11-24T04:18:34.961Z,98418.81
2022-11-24T04:21:03.013Z,98423.03
2022-11-24T04:23:32.482Z,98428.47
2022-11-24T04:26:00.683Z,98431.78
2022-11-24T04:28:28.816Z,98429.75
2022-11-24T04:30:56.944Z,98429.44
2022-11-24T04:33:25.153Z,98429.44
2022-11-24T04:35:54.511Z,98434.91
2022-11-24T04:39:24.689Z,98436.03
2022-11-24T04:41:12.043Z,98448.72
2022-11-24T04:43:40.872Z,98457.84
2022-11-24T04:46:11.585Z,98457.34
2022-11-24T04:48:39.782Z,98451.66
2022-11-24T04:51:08.804Z,98461.59
2022-11-24T04:53:36.895Z,98458.31
2022-11-24T04:56:06.781Z,98458.31
2022-11-24T04:58:36.311Z,98461.47
2022-11-24T05:01:09.535Z,98458.09
2022-11-24T05:03:38.221Z,98466.81
2022-11-24T05:06:08.752Z,98479.47
2022-11-24T05:08:36.892Z,98466.16
2022-11-24T05:11:06.004Z,98476.25
2022-11-24T05:13:35.941Z,98477.97
2022-11-24T05:16:04.068Z,98483.06
2022-11-24T05:18:32.451Z,98478.56
2022-11-24T05:21:00.794Z,98479.31
2022-11-24T05:23:29.193Z,98489.75
2022-11-24T05:26:01.177Z,98493.03
2022-11-24T05:28:29.876Z,98489.25
2022-11-24T05:31:01.791Z,98490.09
2022-11-24T05:33:33.632Z,98492.88
2022-11-24T05:36:03.298Z,98494.72
2022-11-24T05:38:32.282Z,98505.22
2022-11-24T05:41:02.051Z,98502.78
2022-11-24T05:43:30.350Z,98493.50
2022-11-24T05:46:01.634Z,98489.50
2022-11-24T05:48:29.813Z,98495.56
2022-11-24T05:50:59.431Z,98489.91
2022-11-24T05:53:27.522Z,98485.00
2022-11-24T05:55:55.630Z,98488.19
2022-11-24T05:58:23.886Z,98486.34
2022-11-24T06:00:51.955Z,98487.06
2022-11-24T06:03:21.426Z,98493.09
2022-11-24T06:05:49.510Z,98501.63
2022-11-24T06:08:17.611Z,98499.06
2022-11-24T06:10:45.653Z,98495.78
2022-11-24T06:13:13.826Z,98512.41
2022-11-24T06:15:42.271Z,98512.28
2022-11-24T06:18:10.451Z,98511.34
2022-11-24T06:20:39.841Z,98507.66
2022-11-24T06:23:07.963Z,98502.28
2022-11-24T06:25:36.051Z,98505.88
2022-11-24T06:28:05.621Z,98503.91
2022-11-24T06:30:33.841Z,98501.19
2022-11-24T06:33:02.422Z,98496.16
2022-11-24T06:35:30.530Z,98503.91
2022-11-24T06:38:00.030Z,98511.81
2022-11-24T06:40:28.160Z,98513.72
2022-11-24T06:42:56.400Z,98511.34
2022-11-24T06:45:24.532Z,98517.47
2022-11-24T06:47:54.858Z,98522.59
2022-11-24T06:50:23.232Z,98525.94
2022-11-24T06:52:51.412Z,98530.22
2022-11-24T06:55:20.831Z,98541.63
2022-11-24T06:57:48.971Z,98538.97
2022-11-24T07:00:17.746Z,98536.59
2022-11-24T07:02:46.394Z,98543.63
2022-11-24T07:05:14.683Z,98538.34
2022-11-24T07:07:43.047Z,98536.72
2022-11-24T07:10:11.380Z,98539.25
2022-11-24T07:12:40.801Z,98540.13
2022-11-24T07:15:09.859Z,98544.66
2022-11-24T07:17:38.490Z,98542.25
2022-11-24T07:20:08.210Z,98544.09
2022-11-24T07:22:37.064Z,98553.84
2022-11-24T07:25:07.492Z,98542.09
2022-11-24T07:27:35.681Z,98555.22
2022-11-24T07:30:05.601Z,98550.88
2022-11-24T07:32:34.071Z,98547.38
2022-11-24T07:35:02.400Z,98538.56
2022-11-24T07:37:31.897Z,98545.47
2022-11-24T07:40:00.263Z,98541.97
2022-11-24T07:42:29.109Z,98542.09
2022-11-24T07:44:57.272Z,98543.00
2022-11-24T07:47:26.711Z,98533.50
2022-11-24T07:49:54.771Z,98531.78
2022-11-24T07:52:23.501Z,98538.72
2022-11-24T07:54:51.564Z,98535.97
2022-11-24T07:57:19.721Z,98531.53
2022-11-24T07:59:47.840Z,98535.59
2022-11-24T08:02:16.101Z,98520.66
2022-11-24T08:04:45.531Z,98536.84
2022-11-24T08:07:13.857Z,98534.66
2022-11-24T08:09:42.002Z,98533.41
2022-11-24T08:12:10.192Z,98537.38
2022-11-24T08:14:38.371Z,98532.03
2022-11-24T08:17:06.639Z,98549.28
2022-11-24T08:19:35.437Z,98555.28
2022-11-24T08:22:04.921Z,98550.13
2022-11-24T08:24:33.365Z,98548.19
2022-11-24T08:27:01.981Z,98534.88
2022-11-24T08:29:30.329Z,98544.03
2022-11-24T08:31:58.768Z,98543.91
2022-11-24T08:34:27.143Z,98542.75
2022-11-24T08:36:55.311Z,98552.13
2022-11-24T08:39:24.823Z,98545.94
2022-11-24T08:41:52.962Z,98548.31
2022-11-24T08:44:21.129Z,98547.25
2022-11-24T08:46:49.971Z,98544.44
2022-11-24T08:49:19.048Z,98544.44
2022-11-24T08:51:48.701Z,98549.75
2022-11-24T08:54:18.745Z,98544.84
2022-11-24T08:56:50.769Z,98546.78
2022-11-24T08:59:18.971Z,98545.22
2022-11-24T09:01:47.205Z,98543.41
2022-11-24T09:04:15.449Z,98544.13
2022-11-24T09:06:43.571Z,98539.63
2022-11-24T09:09:12.123Z,98528.25
2022-11-24T09:11:40.236Z,98509.84
2022-11-24T09:14:09.671Z,98505.44
2022-11-24T09:16:37.896Z,98505.69
2022-11-24T09:19:08.151Z,98500.00
2022-11-24T09:21:39.027Z,98491.50
2022-11-24T09:24:08.516Z,98496.53
2022-11-24T09:26:43.044Z,98497.72
2022-11-24T09:29:14.280Z,98481.94
2022-11-24T09:31:42.331Z,98491.59
2022-11-24T09:34:14.462Z,98482.09
2022-11-24T09:36:42.663Z,98481.38
2022-11-24T09:39:11.150Z,98480.88
2022-11-24T09:41:49.514Z,98479.75
2022-11-24T09:44:43.021Z,98474.09
2022-11-24T09:47:19.772Z,98478.28
2022-11-24T09:49:54.512Z,98460.84
2022-11-24T09:52:34.361Z,98456.84
2022-11-24T09:55:06.210Z,98442.53
2022-11-24T09:57:37.929Z,98450.78
2022-11-24T10:00:14.200Z,98443.09
2022-11-24T10:02:42.352Z,98445.16
2022-11-24T10:05:13.731Z,98428.25
2022-11-24T10:07:50.430Z,98431.41
2022-11-24T10:10:25.114Z,98429.97
2022-11-24T10:13:06.211Z,98431.00
2022-11-24T10:15:46.006Z,98427.66
2022-11-24T10:18:28.476Z,98412.78
2022-11-24T10:21:06.871Z,98414.81
2022-11-24T10:23:51.284Z,98385.69
2022-11-24T10:26:22.021Z,98403.84
2022-11-24T10:28:55.801Z,98392.66
2022-11-24T10:31:29.721Z,98389.53
2022-11-24T10:34:01.743Z,98379.97
2022-11-24T10:36:39.091Z,98370.56
2022-11-24T10:39:16.781Z,98377.59
2022-11-24T10:41:53.724Z,98382.00
2022-11-24T10:44:21.910Z,98367.00
2022-11-24T10:46:52.074Z,98370.66
2022-11-24T10:49:25.201Z,98372.50
2022-11-24T10:52:05.160Z,98372.81
2022-11-24T10:54:35.671Z,98361.34
2022-11-24T10:57:04.294Z,98352.53
2022-11-24T10:59:38.939Z,98354.06
2022-11-24T11:02:29.988Z,98333.72
2022-11-24T11:04:58.712Z,98340.38
2022-11-24T11:07:28.139Z,98324.81
2022-11-24T11:10:29.321Z,98316.75
2022-11-24T11:12:57.502Z,98314.31
2022-11-24T11:15:29.705Z,98303.03
2022-11-24T11:18:01.502Z,98297.19
2022-11-24T11:20:32.781Z,98283.66
2022-11-24T11:23:04.373Z,98286.63
2022-11-24T11:25:35.061Z,98260.91
2022-11-24T11:28:24.122Z,98246.41
2022-11-24T11:31:21.997Z,98259.19
2022-11-24T11:34:06.237Z,98244.34
2022-11-24T11:36:42.380Z,98238.34
2022-11-24T11:39:22.986Z,98251.28
2022-11-24T11:41:55.061Z,98235.31
2022-11-24T11:44:33.666Z,98231.31
2022-11-24T11:47:12.762Z,98231.38
2022-11-24T11:49:42.361Z,98235.16
2022-11-24T11:52:33.731Z,98220.13
2022-11-24T11:55:17.272Z,98227.84
2022-11-24T11:57:55.294Z,98213.84
2022-11-24T12:00:23.751Z,98211.28
2022-11-24T12:03:11.695Z,98198.31
2022-11-24T12:05:51.885Z,98184.22
2022-11-24T12:08:31.340Z,98187.59
2022-11-24T12:11:13.490Z,98163.63
2022-11-24T12:13:52.554Z,98158.59
2022-11-24T12:16:35.402Z,98170.16
2022-11-24T12:19:20.699Z,98153.31
2022-11-24T12:21:59.081Z,98168.28
2022-11-24T12:24:37.409Z,98157.53
2022-11-24T12:27:11.261Z,98158.88
2022-11-24T12:29:50.200Z,98162.47
2022-11-24T12:32:35.170Z,98162.91
2022-11-24T12:35:17.150Z,98161.66
2022-11-24T12:37:58.640Z,98150.19
2022-11-24T12:40:43.629Z,98135.25
2022-11-24T12:43:23.501Z,98130.41
2022-11-24T12:45:59.183Z,98127.44
2022-11-24T12:48:40.593Z,98109.75
2022-11-24T12:51:16.986Z,98117.00
2022-11-24T12:53:49.230Z,98110.19
2022-11-24T12:56:20.312Z,98105.75
2022-11-24T12:58:55.690Z,98101.34
2022-11-24T13:01:32.945Z,98101.22
2022-11-24T13:04:12.063Z,98091.47
2022-11-24T13:06:51.094Z,98092.19
2022-11-24T13:09:21.012Z,98079.88
2022-11-24T13:11:50.123Z,98076.81
2022-11-24T13:14:22.713Z,98059.91
2022-11-24T13:17:21.875Z,98060.31
2022-11-24T13:19:42.000Z,98065.34
2022-11-24T13:22:19.570Z,98050.63
2022-11-24T13:25:13.409Z,98038.03
2022-11-24T13:27:44.473Z,98046.41
2022-11-24T13:30:52.372Z,98035.69
2022-11-24T13:33:36.262Z,98047.69
2022-11-24T13:36:53.668Z,98023.91
2022-11-24T13:39:22.948Z,98031.06
2022-11-24T13:42:06.721Z,98034.41
2022-11-24T13:44:54.510Z,98033.97
2022-11-24T13:47:42.871Z,98026.19
2022-11-24T13:50:15.871Z,98027.22
2022-11-24T13:52:50.190Z,98031.75
2022-11-24T13:55:23.967Z,98041.72
2022-11-24T13:57:54.380Z,98027.13
2022-11-24T14:00:26.410Z,98021.13
2022-11-24T14:02:58.955Z,98034.25
2022-11-24T14:05:34.995Z,98041.41
2022-11-24T14:08:03.740Z,98022.28
2022-11-24T14:10:35.338Z,98046.88
2022-11-24T14:13:27.607Z,98018.16
2022-11-24T14:16:04.309Z,98034.97
2022-11-24T14:18:33.230Z,98015.75
2022-11-24T14:21:15.979Z,98027.22
2022-11-24T14:23:46.910Z,98023.63
2022-11-24T14:26:21.467Z,98025.31
2022-11-24T14:28:51.928Z,98023.81
2022-11-24T14:31:23.688Z,98018.97
2022-11-24T14:34:04.188Z,98020.88
2022-11-24T14:36:32.450Z,98045.66
2022-11-24T14:39:01.406Z,98052.69
2022-11-24T14:41:29.698Z,98064.97
2022-11-24T14:44:20.470Z,98062.56
2022-11-24T14:46:49.197Z,98059.88
2022-11-24T14:49:20.929Z,98056.25
2022-11-24T14:51:57.202Z,98075.13
2022-11-24T14:54:26.040Z,98087.91
2022-11-24T14:56:58.973Z,98121.38
2022-11-24T14:59:30.007Z,98140.69
2022-11-24T15:01:59.600Z,98122.88
2022-11-24T15:07:24.170Z,98143.97
2022-11-24T15:09:54.420Z,98117.28
2022-11-24T15:12:29.255Z,98122.03
2022-11-24T15:15:02.393Z,98121.53
2022-11-24T15:17:31.575Z,98116.56
2022-11-24T15:20:04.881Z,98123.91
2022-11-24T15:22:38.401Z,98110.13
2022-11-24T15:25:29.136Z,98098.06
2022-11-24T15:27:57.610Z,98088.44
2022-11-24T15:30:27.663Z,98104.88
2022-11-24T15:32:57.525Z,98115.91
2022-11-24T15:35:26.950Z,98113.97
2022-11-24T15:37:55.058Z,98112.81
2022-11-24T15:40:23.570Z,98122.00
2022-11-24T15:42:53.460Z,98116.44
2022-11-24T15:45:22.969Z,98110.88
2022-11-24T15:47:52.489Z,98123.28
2022-11-24T15:50:21.848Z,98128.00
2022-11-24T15:52:50.439Z,98125.28
2022-11-24T15:55:21.409Z,98129.59
2022-11-24T15:57:50.420Z,98121.75
2022-11-24T16:00:20.601Z,98123.47
2022-11-24T16:02:49.111Z,98119.91
2022-11-24T16:05:19.290Z,98114.69
2022-11-24T16:07:47.441Z,98124.22
2022-11-24T16:10:23.497Z,98137.38
2022-11-24T16:12:51.651Z,98144.38
2022-11-24T16:15:19.700Z,98141.78
2022-11-24T16:17:48.082Z,98136.69
2022-11-24T16:20:16.721Z,98149.75
2022-11-24T16:22:46.792Z,98154.41
2022-11-24T16:25:15.541Z,98145.28
2022-11-24T16:27:43.922Z,98152.09
2022-11-24T16:30:14.290Z,98165.78
2022-11-24T16:32:42.472Z,98163.16
2022-11-24T16:35:10.772Z,98170.88
2022-11-24T16:37:38.984Z,98176.09
2022-11-24T16:40:09.559Z,98177.47
2022-11-24T16:42:37.701Z,98188.50
2022-11-24T16:45:06.833Z,98189.09
2022-11-24T16:47:40.132Z,98194.34
2022-11-24T16:50:09.147Z,98201.94
2022-11-24T16:52:37.680Z,98204.94
2022-11-24T16:55:06.248Z,98196.25
2022-11-24T16:57:37.037Z,98208.66
2022-11-24T17:00:06.160Z,98204.59
2022-11-24T17:02:35.546Z,98206.97
2022-11-24T17:05:03.783Z,98196.75
2022-11-24T17:07:32.003Z,98201.78
2022-11-24T17:10:00.920Z,98204.72
2022-11-24T17:12:29.058Z,98207.69
2022-11-24T17:15:30.480Z,98217.22
2022-11-24T17:18:16.184Z,98232.06
2022-11-24T17:20:36.151Z,98231.81
2022-11-24T17:23:04.221Z,98228.44
2022-11-24T17:25:33.556Z,98227.91
2022-11-24T17:28:01.570Z,98239.38
2022-11-24T17:30:31.020Z,98239.84
2022-11-24T17:32:59.122Z,98245.91
2022-11-24T17:35:27.204Z,98232.16
2022-11-24T17:37:57.064Z,98245.53
2022-11-24T17:40:29.492Z,98252.63
2022-11-24T17:42:59.947Z,98253.84
2022-11-24T17:45:28.675Z,98256.22
2022-11-24T17:47:59.569Z,98258.06
2022-11-24T17:50:27.807Z,98263.31
2022-11-24T17:52:55.892Z,98259.75
2022-11-24T17:55:24.031Z,98263.97
2022-11-24T17:57:52.530Z,98269.22
2022-11-24T18:00:21.100Z,98271.81
2022-11-24T18:02:49.315Z,98271.38
2022-11-24T18:05:18.968Z,98278.28
2022-11-24T18:07:47.199Z,98274.78
2022-11-24T18:10:15.601Z,98274.91
2022-11-24T18:12:43.701Z,98281.72
2022-11-24T18:15:12.342Z,98279.81
2022-11-24T18:17:40.481Z,98274.78
2022-11-24T18:20:09.395Z,98282.13
2022-11-24T18:25:27.049Z,98284.19
2022-11-24T18:27:55.140Z,98286.13
2022-11-24T18:30:23.310Z,98280.66
2022-11-24T18:32:51.450Z,98285.66
2022-11-24T18:35:19.569Z,98292.44
2022-11-24T18:37:49.009Z,98295.81
2022-11-24T18:40:17.282Z,98303.94
2022-11-24T18:42:45.430Z,98295.19
2022-11-24T18:45:13.570Z,98293.97
2022-11-24T18:47:41.669Z,98297.50
2022-11-24T18:50:10.660Z,98307.31
2022-11-24T18:52:38.730Z,98318.56
2022-11-24T18:55:08.699Z,98323.94
2022-11-24T18:57:36.859Z,98324.94
2022-11-24T19:00:06.030Z,98331.31
2022-11-24T19:02:34.136Z,98340.19
2022-11-24T19:05:03.080Z,98331.47
2022-11-24T19:07:31.226Z,98317.22
2022-11-24T19:09:59.340Z,98326.91
2022-11-24T19:12:28.760Z,98319.28
2022-11-24T19:14:56.971Z,98310.84
2022-11-24T19:17:25.020Z,98309.94
2022-11-24T19:19:53.416Z,98317.75
2022-11-24T19:22:21.812Z,98320.88
2022-11-24T19:24:50.853Z,98328.94
2022-11-24T19:27:21.085Z,98344.31
2022-11-24T19:29:50.517Z,98352.66
2022-11-24T19:32:19.556Z,98362.94
2022-11-24T19:34:47.719Z,98361.53
2022-11-24T19:37:16.126Z,98354.28
2022-11-24T19:39:44.264Z,98347.72
2022-11-24T19:42:12.310Z,98341.78
2022-11-24T19:44:40.462Z,98347.00
2022-11-24T19:47:09.843Z,98340.38
2022-11-24T19:49:38.019Z,98350.31
2022-11-24T19:52:06.221Z,98342.66
2022-11-24T19:54:35.727Z,98334.03
2022-11-24T19:57:03.962Z,98341.94
2022-11-24T19:59:32.138Z,98324.38
2022-11-24T20:02:02.576Z,98318.31
2022-11-24T20:04:33.353Z,98314.84
2022-11-24T20:07:01.848Z,98324.13
2022-11-24T20:09:29.910Z,98314.41
2022-11-24T20:11:58.793Z,98332.81
2022-11-24T20:14:26.910Z,98328.53
2022-11-24T20:16:55.070Z,98327.47
2022-11-24T20:19:23.441Z,98330.16
2022-11-24T20:21:54.029Z,98326.81
2022-11-24T20:24:24.773Z,98330.84
2022-11-24T20:26:56.270Z,98327.56
2022-11-24T20:29:24.543Z,98334.59
2022-11-24T20:31:54.840Z,98342.50
2022-11-24T20:34:23.570Z,98345.75
2022-11-24T20:36:53.930Z,98337.91
2022-11-24T20:39:25.464Z,98340.66
2022-11-24T20:41:55.145Z,98331.97
2022-11-24T20:44:26.585Z,98323.00
2022-11-24T20:46:56.772Z,98323.00
2022-11-24T20:49:25.129Z,98312.56
2022-11-24T20:51:57.974Z,98322.59
2022-11-24T20:54:26.241Z,98322.44
2022-11-24T20:56:54.350Z,98323.50
2022-11-24T20:59:24.713Z,98329.72
2022-11-24T21:01:55.289Z,98320.03
2022-11-24T21:04:25.911Z,98326.28
2022-11-24T21:06:55.765Z,98315.97
2022-11-24T21:09:24.766Z,98320.31
2022-11-24T21:11:52.791Z,98315.06
2022-11-24T21:14:20.900Z,98317.78
2022-11-24T21:16:49.056Z,98332.06
2022-11-24T21:19:18.822Z,98329.53
2022-11-24T21:21:47.788Z,98328.59
2022-11-24T21:24:18.870Z,98326.72
2022-11-24T21:26:48.281Z,98324.13
2022-11-24T21:29:19.501Z,98330.53
2022-11-24T21:31:47.865Z,98318.50
2022-11-24T21:34:18.622Z,98317.50
2022-11-24T21:36:47.290Z,98320.47
2022-11-24T21:39:17.676Z,98335.03
2022-11-24T21:41:45.880Z,98337.75
2022-11-24T21:44:14.789Z,98337.91
2022-11-24T21:46:48.202Z,98336.59
2022-11-24T21:49:17.730Z,98334.19
2022-11-24T21:51:45.783Z,98347.72
2022-11-24T21:54:13.881Z,98329.94
2022-11-24T21:56:43.260Z,98331.69
2022-11-24T21:59:11.421Z,98342.50
2022-11-24T22:01:39.593Z,98344.47
2022-11-24T22:04:07.720Z,98334.03
2022-11-24T22:06:35.790Z,98348.78
2022-11-24T22:09:03.859Z,98362.72
2022-11-24T22:11:31.930Z,98362.72
2022-11-24T22:14:01.450Z,98359.84
2022-11-24T22:16:29.811Z,98380.53
2022-11-24T22:19:00.540Z,98361.13
2022-11-24T22:21:30.840Z,98355.63
2022-11-24T22:23:59.341Z,98359.00
2022-11-24T22:26:28.439Z,98359.00
2022-11-24T22:28:58.020Z,98377.38
2022-11-24T22:31:28.974Z,98384.13
2022-11-24T22:33:57.922Z,98387.25
2022-11-24T22:36:27.771Z,98380.09
2022-11-24T22:38:56.776Z,98389.22
2022-11-24T22:41:25.569Z,98400.28
2022-11-24T22:43:54.631Z,98396.41
2022-11-24T22:46:24.381Z,98409.25
2022-11-24T22:48:54.995Z,98418.00
2022-11-24T22:51:26.439Z,98423.78
2022-11-24T22:53:56.619Z,98433.00
2022-11-24T22:56:27.866Z,98426.44
2022-11-24T22:58:56.300Z,98442.25
2022-11-24T23:01:26.349Z,98453.00
2022-11-24T23:03:56.034Z,98448.06
2022-11-24T23:06:28.732Z,98446.66
2022-11-24T23:08:58.889Z,98455.50
2022-11-24T23:11:34.832Z,98443.38
2022-11-24T23:14:05.370Z,98466.81
2022-11-24T23:16:33.562Z,98469.44
2022-11-24T23:19:03.066Z,98476.34
2022-11-24T23:21:32.980Z,98465.88
2022-11-24T23:24:03.030Z,98464.06
2022-11-24T23:26:33.061Z,98464.91
2022-11-24T23:29:01.470Z,98451.91
2022-11-24T23:31:30.205Z,98437.28
2022-11-24T23:33:59.423Z,98435.81
2022-11-24T23:36:30.049Z,98420.50
2022-11-24T23:39:02.101Z,98435.69
2022-11-24T23:41:31.584Z,98438.59
2022-11-24T23:44:00.159Z,98443.00
2022-11-24T23:46:29.447Z,98462.22
2022-11-24T23:48:58.151Z,98464.19
2022-11-24T23:51:29.219Z,98473.09
2022-11-24T23:53:58.179Z,98475.72
2022-11-24T23:56:28.179Z,98466.03
2022-11-24T23:58:56.261Z,98480.03
